LET weather

Los Ebanos Airport
Matamoros, Tamaulipas, Mexico

Public forecast

Using degrees Celsius for public forecast. Weather courtesy of forecast.io.

Closest aviation weather report (METAR) to Los Ebanos Airport

Report is more than 6 hours old.

Closest report is General Servando Canales International Airport, 28.0 nm (51.9 km) NNE. Retrieved 2019/10/21 00:40 UTC (9 hours ago):

MMMA 210040Z 14011KT 5SM OVC070 28/27 A2972 RMK 8/05/ HZ

Closest aviation forecast (TAF) to Los Ebanos Airport

Closest forecast is General Servando Canales International Airport, 28.0 nm (51.9 km) NNE. Retrieved 2019/10/21 06:19 UTC (3 hours ago):

TAF MMMA 210511Z 2106/2206 14010KT 5SM HZ BKN015 BKN070 TEMPO 2106/2109 5SM TSRA BKN010CB FM211000 14012KT 5SM HZ BKN010 BKN070 TEMPO 2112/2115 1SM -RA BR BKN005 BKN010CB FM211800 33015KT P6SM BKN020 BKN100 FM220202 03012KT P6SM BKN020